Time;durP1;ratioP1;P1;durP2;ratioP2;P2;SDS_P1;SDS_P2;PMS_P1;PMS_P2;Temp;Humidity;BMP_temperature;BMP_pressure;BME280_temperature;BME280_humidity;BME280_pressure;Samples;Min_cycle;Max_cycle;Signal;HPM_P1;HPM_P2
2021/10/17 00:00:26;;;;;;;3.00;2.50;;;11.20;99.90;;;;;;5023691;23;20481;-47
2021/10/17 00:02:52;;;;;;;4.73;2.50;;;11.20;99.90;;;;;;5016419;28;20437;-51
2021/10/17 00:05:21;;;;;;;6.00;2.47;;;11.10;99.90;;;;;;5023588;22;20985;-51
2021/10/17 00:07:48;;;;;;;8.13;2.70;;;11.00;99.90;;;;;;5015859;28;20945;-50
2021/10/17 00:10:17;;;;;;;6.83;2.60;;;11.00;99.90;;;;;;5024029;22;20538;-53
2021/10/17 00:12:44;;;;;;;10.37;2.80;;;11.00;99.90;;;;;;5016164;28;20815;-50
2021/10/17 00:15:13;;;;;;;5.13;2.60;;;11.00;99.90;;;;;;5023290;23;20497;-52
2021/10/17 00:17:41;;;;;;;4.73;2.73;;;11.00;99.90;;;;;;5016233;28;20433;-55
2021/10/17 00:20:09;;;;;;;7.10;2.60;;;11.00;99.90;;;;;;5024237;23;20449;-53
2021/10/17 00:22:37;;;;;;;3.23;2.50;;;11.00;99.90;;;;;;4996048;28;20466;-52
2021/10/17 00:25:04;;;;;;;5.07;2.53;;;11.00;99.90;;;;;;4996261;28;20442;-51
2021/10/17 00:27:31;;;;;;;2.87;2.40;;;11.10;99.90;;;;;;5003742;23;20552;-49
2021/10/17 00:29:58;;;;;;;2.60;2.10;;;11.00;99.90;;;;;;4996152;28;20512;-50
2021/10/17 00:32:25;;;;;;;9.10;2.83;;;11.00;99.90;;;;;;5020568;23;20559;-49
2021/10/17 00:34:53;;;;;;;8.83;2.93;;;11.00;99.90;;;;;;5015371;28;20933;-53
2021/10/17 00:37:20;;;;;;;4.13;2.50;;;11.00;99.90;;;;;;5023409;22;20503;-49
2021/10/17 00:39:47;;;;;;;7.07;2.60;;;11.00;99.90;;;;;;5015573;28;20519;-51
2021/10/17 00:42:14;;;;;;;4.57;2.67;;;11.00;99.90;;;;;;5022913;22;20493;-50
2021/10/17 00:44:41;;;;;;;9.27;2.30;;;11.00;99.90;;;;;;5015556;28;20453;-51
2021/10/17 00:47:08;;;;;;;8.03;2.10;;;11.00;99.90;;;;;;5013526;23;20585;-54
2021/10/17 00:49:35;;;;;;;3.70;2.07;;;11.00;99.90;;;;;;4994995;28;20792;-53
2021/10/17 00:54:35;;;;;;;7.07;2.47;;;11.00;99.90;;;;;;5021262;22;20505;-51
2021/10/17 00:57:01;;;;;;;6.33;2.77;;;11.00;99.90;;;;;;5015304;28;20473;-52
2021/10/17 00:59:28;;;;;;;4.20;3.60;;;11.00;99.90;;;;;;5022856;23;20492;-49
2021/10/17 01:01:55;;;;;;;3.87;3.10;;;11.00;99.90;;;;;;5015261;28;20531;-50
2021/10/17 01:04:21;;;;;;;3.73;2.60;;;10.90;99.90;;;;;;5023007;22;20485;-48
2021/10/17 01:06:48;;;;;;;3.23;2.33;;;10.90;99.90;;;;;;5015455;28;20949;-53
2021/10/17 01:09:14;;;;;;;3.67;1.90;;;10.90;99.90;;;;;;5022547;23;20543;-53
2021/10/17 01:11:44;;;;;;;6.87;2.40;;;10.90;99.90;;;;;;5014691;28;20539;-53
2021/10/17 01:14:16;;;;;;;6.50;1.97;;;10.90;99.90;;;;;;5022836;23;20566;-50
2021/10/17 01:16:43;;;;;;;3.57;2.70;;;10.90;99.90;;;;;;5015267;28;20473;-51
2021/10/17 01:19:09;;;;;;;2.90;1.97;;;10.90;99.90;;;;;;5022740;23;20590;-51
2021/10/17 01:21:39;;;;;;;3.47;2.07;;;10.90;99.90;;;;;;5014891;28;20473;-52
2021/10/17 01:24:06;;;;;;;2.90;2.00;;;10.90;99.90;;;;;;5022680;23;20504;-49
2021/10/17 01:26:33;;;;;;;5.50;3.67;;;10.90;99.90;;;;;;5014985;28;20555;-48
2021/10/17 01:29:00;;;;;;;4.17;2.80;;;10.90;99.90;;;;;;5022496;23;20802;-52
2021/10/17 01:31:34;;;;;;;3.90;2.57;;;10.90;99.90;;;;;;5014859;28;20540;-51
2021/10/17 01:34:01;;;;;;;3.33;2.57;;;10.90;99.90;;;;;;5022550;23;20485;-53
2021/10/17 01:36:27;;;;;;;3.90;1.97;;;10.90;99.90;;;;;;5022365;22;20499;-53
2021/10/17 01:38:56;;;;;;;2.50;2.00;;;10.80;99.90;;;;;;5014810;28;20523;-50
2021/10/17 01:41:23;;;;;;;6.60;2.40;;;10.80;99.90;;;;;;5022994;23;20496;-53
2021/10/17 01:43:49;;;;;;;4.10;2.17;;;10.80;99.90;;;;;;5014819;28;20535;-50
2021/10/17 01:46:16;;;;;;;2.63;1.80;;;10.70;99.90;;;;;;5022153;23;20524;-50
2021/10/17 01:48:43;;;;;;;3.90;2.73;;;10.70;99.90;;;;;;5014746;28;20523;-49
2021/10/17 01:51:09;;;;;;;2.93;2.30;;;10.70;99.90;;;;;;5022206;23;20985;-48
2021/10/17 01:53:36;;;;;;;2.93;2.70;;;10.70;99.90;;;;;;5014832;28;20457;-51
2021/10/17 01:56:04;;;;;;;5.80;2.93;;;10.70;99.90;;;;;;5022572;23;20539;-49
2021/10/17 01:58:31;;;;;;;4.40;1.73;;;10.70;99.90;;;;;;5014284;28;20913;-49
2021/10/17 02:00:57;;;;;;;5.50;2.27;;;10.70;99.90;;;;;;5023480;23;20531;-49
2021/10/17 02:03:24;;;;;;;8.10;1.80;;;10.70;99.90;;;;;;5019026;28;20429;-51
2021/10/17 02:05:51;;;;;;;3.70;2.23;;;10.70;99.90;;;;;;5026729;23;20448;-50
2021/10/17 02:08:17;;;;;;;4.17;2.23;;;10.70;99.90;;;;;;5017696;28;20493;-49
2021/10/17 02:10:44;;;;;;;2.70;1.57;;;10.70;99.90;;;;;;5018405;28;20449;-54
2021/10/17 02:13:12;;;;;;;4.07;2.30;;;10.70;99.90;;;;;;5025880;23;20965;-53
2021/10/17 02:15:38;;;;;;;21.43;3.13;;;10.70;99.90;;;;;;5018307;28;20538;-48
2021/10/17 02:18:05;;;;;;;4.00;2.27;;;10.80;99.90;;;;;;5033660;22;20590;-50
2021/10/17 02:20:34;;;;;;;4.03;2.00;;;10.80;99.90;;;;;;5018215;28;20580;-49
2021/10/17 02:23:03;;;;;;;4.90;2.50;;;10.80;99.90;;;;;;5025669;23;20488;-48
2021/10/17 02:25:30;;;;;;;2.73;1.70;;;10.70;99.90;;;;;;5018578;28;20429;-52
2021/10/17 02:27:57;;;;;;;4.37;2.40;;;10.60;99.90;;;;;;5026194;23;20484;-56
2021/10/17 02:30:26;;;;;;;11.23;2.50;;;10.60;99.90;;;;;;5018040;28;20481;-48
2021/10/17 02:32:52;;;;;;;2.33;1.60;;;10.60;99.90;;;;;;5025481;23;20472;-51
2021/10/17 02:35:19;;;;;;;4.90;2.30;;;10.60;99.90;;;;;;4998655;28;20434;-53
2021/10/17 02:37:46;;;;;;;1.87;1.53;;;10.60;99.90;;;;;;4998195;28;20470;-50
2021/10/17 02:40:13;;;;;;;3.00;1.97;;;10.60;99.90;;;;;;5023350;23;20884;-49
2021/10/17 02:42:40;;;;;;;3.90;1.83;;;10.60;99.90;;;;;;5017999;28;20546;-54
2021/10/17 02:45:08;;;;;;;2.53;2.23;;;10.60;99.90;;;;;;5025246;23;20965;-50
2021/10/17 02:47:36;;;;;;;3.20;2.67;;;10.60;99.90;;;;;;5017854;28;20480;-51
2021/10/17 02:50:03;;;;;;;3.50;1.50;;;10.60;99.90;;;;;;5025704;23;20574;-51
2021/10/17 02:52:30;;;;;;;3.20;2.07;;;10.60;99.90;;;;;;5017309;28;20465;-53
2021/10/17 02:54:57;;;;;;;2.20;1.80;;;10.70;99.90;;;;;;5013071;22;20494;-52
2021/10/17 02:57:23;;;;;;;3.20;1.83;;;10.70;99.90;;;;;;4997802;28;20478;-50
2021/10/17 02:59:50;;;;;;;6.33;2.20;;;10.70;99.90;;;;;;5014803;23;20562;-51
2021/10/17 03:02:17;;;;;;;3.73;2.77;;;10.70;99.90;;;;;;5017392;28;20847;-52
2021/10/17 03:04:45;;;;;;;5.10;2.00;;;10.70;99.90;;;;;;5025221;23;20550;-46
2021/10/17 03:07:11;;;;;;;7.10;2.10;;;10.70;99.90;;;;;;5017261;28;20473;-52
2021/10/17 03:09:38;;;;;;;6.73;2.60;;;10.60;99.90;;;;;;5024712;23;20481;-50
2021/10/17 03:12:05;;;;;;;5.53;2.10;;;10.60;99.90;;;;;;5016951;28;20535;-51
2021/10/17 03:14:32;;;;;;;4.20;1.97;;;10.60;99.90;;;;;;5024662;22;20453;-47
2021/10/17 03:16:59;;;;;;;8.43;1.97;;;10.50;99.90;;;;;;4997805;28;20543;-51
2021/10/17 03:22:10;;;;;;;2.53;1.80;;;10.50;99.90;;;;;;5024723;22;20551;-54
2021/10/17 03:27:17;;;;;;;5.00;2.53;;;10.40;99.90;;;;;;5023867;23;20493;-50
2021/10/17 03:29:44;;;;;;;5.80;2.20;;;10.40;99.90;;;;;;5016823;28;20461;-50
2021/10/17 03:32:11;;;;;;;2.30;1.67;;;10.40;99.90;;;;;;5024358;23;20492;-53
2021/10/17 03:34:37;;;;;;;2.87;2.50;;;10.40;99.90;;;;;;5017356;28;20889;-54
2021/10/17 03:37:04;;;;;;;8.63;2.17;;;10.40;99.90;;;;;;5024151;22;20500;-53
2021/10/17 03:39:32;;;;;;;3.13;2.50;;;10.40;99.90;;;;;;5016826;28;20503;-54
2021/10/17 03:41:58;;;;;;;3.80;1.80;;;10.40;99.90;;;;;;5023992;23;20554;-53
2021/10/17 03:44:25;;;;;;;3.70;2.30;;;10.40;99.90;;;;;;5016737;28;20484;-49
2021/10/17 03:46:52;;;;;;;2.60;2.23;;;10.40;99.90;;;;;;5024356;23;20492;-54
2021/10/17 03:49:18;;;;;;;4.73;2.43;;;10.40;99.90;;;;;;5016482;28;20476;-52
2021/10/17 03:51:45;;;;;;;9.17;2.47;;;10.40;99.90;;;;;;5023922;23;20497;-50
2021/10/17 03:54:12;;;;;;;5.17;2.27;;;10.40;99.90;;;;;;5016504;28;20444;-51
2021/10/17 03:56:40;;;;;;;3.43;2.00;;;10.40;99.90;;;;;;5024480;22;20520;-52
2021/10/17 03:59:06;;;;;;;3.27;2.93;;;10.40;99.90;;;;;;5016169;28;20476;-50
2021/10/17 04:01:33;;;;;;;2.57;1.80;;;10.30;99.90;;;;;;5023841;23;20449;-48
2021/10/17 04:04:00;;;;;;;3.47;2.07;;;10.20;99.90;;;;;;5016253;28;20480;-48
2021/10/17 04:06:26;;;;;;;1.93;1.63;;;10.20;99.90;;;;;;5025399;23;20519;-47
2021/10/17 04:08:53;;;;;;;5.13;2.17;;;10.10;99.90;;;;;;5014736;28;20815;-51
2021/10/17 04:11:20;;;;;;;4.53;2.27;;;10.10;99.90;;;;;;5016125;28;20445;-51
2021/10/17 04:13:47;;;;;;;2.47;1.77;;;10.00;99.90;;;;;;5006098;23;20509;-47
2021/10/17 04:16:14;;;;;;;5.00;1.87;;;10.00;99.90;;;;;;4996113;28;20461;-48
2021/10/17 04:18:41;;;;;;;3.70;2.00;;;9.80;99.90;;;;;;4996305;28;20478;-46
2021/10/17 04:21:07;;;;;;;16.77;2.30;;;9.70;99.90;;;;;;4996692;28;20454;-50
2021/10/17 04:23:34;;;;;;;4.80;2.07;;;9.70;99.90;;;;;;4996115;28;20540;-53
2021/10/17 04:26:01;;;;;;;5.00;2.00;;;9.60;99.90;;;;;;4995977;28;20757;-51
2021/10/17 04:28:27;;;;;;;3.10;1.97;;;9.50;99.90;;;;;;4996126;28;20509;-49
2021/10/17 04:30:55;;;;;;;4.13;3.00;;;9.40;99.90;;;;;;4996076;28;20478;-52
2021/10/17 04:33:22;;;;;;;7.40;2.10;;;9.40;99.90;;;;;;4996014;28;20470;-50
2021/10/17 04:35:49;;;;;;;4.43;2.77;;;9.30;99.90;;;;;;4995787;28;20458;-50
2021/10/17 04:38:15;;;;;;;5.27;2.37;;;9.30;99.90;;;;;;4995606;28;20536;-53
2021/10/17 04:40:43;;;;;;;6.03;1.87;;;9.20;99.90;;;;;;4995768;28;20497;-48
2021/10/17 04:43:11;;;;;;;6.53;1.90;;;9.20;99.90;;;;;;4996056;28;20470;-53
2021/10/17 04:45:38;;;;;;;6.77;2.20;;;9.20;99.90;;;;;;4995843;28;20450;-49
2021/10/17 04:48:06;;;;;;;4.10;2.40;;;9.20;99.90;;;;;;4995731;28;20556;-52
2021/10/17 04:50:33;;;;;;;3.83;1.90;;;9.20;99.90;;;;;;4995468;28;20488;-50
2021/10/17 04:53:00;;;;;;;4.57;1.97;;;9.10;99.90;;;;;;4995669;28;20536;-45
2021/10/17 04:55:26;;;;;;;4.10;2.10;;;9.10;99.90;;;;;;4995746;28;20516;-52
2021/10/17 04:57:53;;;;;;;2.77;1.87;;;9.10;99.90;;;;;;4995689;28;20541;-48
2021/10/17 05:00:20;;;;;;;3.97;1.67;;;9.10;99.90;;;;;;4995652;28;20815;-52
2021/10/17 05:02:46;;;;;;;4.97;2.23;;;9.00;99.90;;;;;;4996244;28;20541;-49
2021/10/17 05:05:14;;;;;;;4.57;1.90;;;9.00;99.90;;;;;;4995864;28;20567;-47
2021/10/17 05:07:41;;;;;;;2.83;2.03;;;9.00;99.90;;;;;;4996129;28;20449;-52
2021/10/17 05:10:08;;;;;;;4.87;2.87;;;9.00;99.90;;;;;;4998274;28;20478;-51
2021/10/17 05:12:35;;;;;;;2.47;1.87;;;9.00;99.90;;;;;;4995609;28;20454;-51
2021/10/17 05:15:02;;;;;;;2.70;2.03;;;8.90;99.90;;;;;;4995711;28;20532;-52
2021/10/17 05:17:28;;;;;;;3.93;2.20;;;9.00;99.90;;;;;;4995964;28;20516;-47
2021/10/17 05:19:55;;;;;;;2.33;2.00;;;8.90;99.90;;;;;;4997259;28;20458;-48
2021/10/17 05:22:23;;;;;;;6.87;2.57;;;9.00;99.90;;;;;;4998479;28;20445;-50
2021/10/17 05:24:49;;;;;;;6.23;2.60;;;8.90;99.90;;;;;;4995906;28;20478;-50
2021/10/17 05:27:16;;;;;;;2.53;2.20;;;8.80;99.90;;;;;;4995772;28;20516;-46
2021/10/17 05:29:42;;;;;;;9.23;2.50;;;8.80;99.90;;;;;;4995055;28;20486;-50
2021/10/17 05:32:09;;;;;;;3.30;2.30;;;8.80;99.90;;;;;;4995638;28;20508;-47
2021/10/17 05:34:36;;;;;;;5.07;2.67;;;8.80;99.90;;;;;;4995358;28;20449;-47
2021/10/17 05:37:02;;;;;;;2.27;1.87;;;8.90;99.90;;;;;;4996037;28;20484;-56
2021/10/17 05:39:30;;;;;;;3.20;2.10;;;8.80;99.90;;;;;;4995186;28;20903;-49
2021/10/17 05:41:57;;;;;;;2.97;2.20;;;8.80;99.90;;;;;;4996530;28;20515;-49
2021/10/17 05:44:24;;;;;;;9.33;2.30;;;8.80;99.90;;;;;;4995539;28;20469;-51
2021/10/17 05:46:50;;;;;;;5.93;2.40;;;8.80;99.90;;;;;;4996265;28;20508;-50
2021/10/17 05:49:17;;;;;;;3.23;2.27;;;8.80;99.90;;;;;;4997508;28;20474;-56
2021/10/17 05:51:44;;;;;;;3.13;2.37;;;8.80;99.90;;;;;;4995659;28;20946;-47
2021/10/17 05:54:10;;;;;;;10.63;2.40;;;8.80;99.90;;;;;;4996504;28;20505;-50
2021/10/17 05:56:38;;;;;;;4.37;2.10;;;8.90;99.90;;;;;;4995804;28;20450;-49
2021/10/17 05:59:08;;;;;;;4.13;2.40;;;8.90;99.90;;;;;;4995348;28;20850;-51
2021/10/17 06:01:35;;;;;;;3.20;2.20;;;9.00;99.90;;;;;;4995229;28;20458;-48
2021/10/17 06:04:02;;;;;;;5.60;2.10;;;9.00;99.90;;;;;;4997024;28;20473;-57
2021/10/17 06:06:29;;;;;;;3.83;2.00;;;9.00;99.90;;;;;;4996924;28;20504;-49
2021/10/17 06:08:57;;;;;;;3.73;2.40;;;9.10;99.90;;;;;;4996638;28;20481;-49
2021/10/17 06:11:24;;;;;;;4.00;3.20;;;9.10;99.90;;;;;;4995085;28;20982;-52
2021/10/17 06:13:52;;;;;;;3.53;2.20;;;9.10;99.90;;;;;;4994934;28;20481;-51
2021/10/17 06:16:19;;;;;;;3.70;2.37;;;9.10;99.90;;;;;;4994986;28;20449;-50
2021/10/17 06:18:45;;;;;;;2.77;2.00;;;9.20;99.90;;;;;;4995438;28;20470;-50
2021/10/17 06:21:12;;;;;;;5.40;2.13;;;9.20;99.90;;;;;;4995388;28;20515;-48
2021/10/17 06:23:39;;;;;;;2.77;2.20;;;9.30;99.90;;;;;;4996366;28;20858;-50
2021/10/17 06:26:05;;;;;;;3.63;1.83;;;9.30;99.90;;;;;;4995659;28;20446;-50
2021/10/17 06:28:32;;;;;;;6.20;2.57;;;9.40;99.90;;;;;;4996405;28;20528;-49
2021/10/17 06:31:00;;;;;;;2.93;1.77;;;9.40;99.90;;;;;;4996244;28;20466;-48
2021/10/17 06:33:27;;;;;;;3.13;2.17;;;9.40;99.90;;;;;;4994429;28;20962;-48
2021/10/17 06:35:53;;;;;;;3.50;2.07;;;9.40;99.90;;;;;;4994692;28;20439;-53
2021/10/17 06:38:20;;;;;;;2.80;1.70;;;9.50;99.90;;;;;;4994617;28;20829;-52
2021/10/17 06:40:47;;;;;;;3.73;2.50;;;9.50;99.90;;;;;;4994715;28;20482;-52
2021/10/17 06:43:13;;;;;;;5.93;2.27;;;9.60;99.90;;;;;;4995722;28;20807;-51
2021/10/17 06:45:40;;;;;;;7.47;2.10;;;9.60;99.90;;;;;;4994252;28;20446;-51
2021/10/17 06:48:08;;;;;;;5.23;1.70;;;9.60;99.90;;;;;;4995630;28;20450;-48
2021/10/17 06:50:34;;;;;;;4.67;2.23;;;9.70;99.90;;;;;;4997997;28;20477;-52
2021/10/17 06:53:01;;;;;;;3.13;1.83;;;9.80;99.90;;;;;;4998097;28;20813;-50
2021/10/17 06:55:28;;;;;;;2.40;1.47;;;9.80;99.90;;;;;;4997745;28;20431;-49
2021/10/17 06:57:54;;;;;;;6.43;2.10;;;9.80;99.90;;;;;;4998979;28;20823;-51
2021/10/17 07:00:21;;;;;;;5.23;2.13;;;9.80;99.90;;;;;;4997931;28;20462;-51
2021/10/17 07:02:48;;;;;;;3.07;1.83;;;9.90;99.90;;;;;;4997908;28;21000;-53
2021/10/17 07:05:16;;;;;;;5.33;1.53;;;9.90;99.90;;;;;;4998493;28;20442;-46
2021/10/17 07:07:42;;;;;;;3.70;1.90;;;9.90;99.90;;;;;;4998304;28;20453;-46
2021/10/17 07:10:09;;;;;;;5.77;1.90;;;9.90;99.90;;;;;;4997661;28;20502;-49
2021/10/17 07:12:36;;;;;;;3.57;2.10;;;10.00;99.90;;;;;;4997473;28;20458;-48
2021/10/17 07:15:03;;;;;;;3.47;1.80;;;10.00;99.90;;;;;;4997939;28;20473;-58
2021/10/17 07:17:30;;;;;;;3.40;1.90;;;10.00;99.90;;;;;;4998132;28;20516;-52
2021/10/17 07:19:56;;;;;;;4.00;1.70;;;10.10;99.90;;;;;;4997332;28;20465;-49
2021/10/17 07:22:24;;;;;;;3.00;2.00;;;10.10;99.90;;;;;;4997477;28;20450;-49
2021/10/17 07:24:51;;;;;;;6.80;2.73;;;10.10;99.90;;;;;;4997736;28;20943;-50
2021/10/17 07:27:18;;;;;;;4.13;1.73;;;10.20;99.90;;;;;;4997133;28;20513;-52
2021/10/17 07:29:45;;;;;;;6.07;2.50;;;10.20;99.90;;;;;;4997975;28;20533;-49
2021/10/17 07:32:12;;;;;;;4.63;2.00;;;10.20;99.90;;;;;;4997344;28;20461;-51
2021/10/17 07:34:38;;;;;;;4.50;1.80;;;10.30;99.90;;;;;;4997512;28;20481;-49
2021/10/17 07:37:05;;;;;;;3.60;1.87;;;10.40;99.90;;;;;;4997330;28;20442;-50
2021/10/17 07:39:33;;;;;;;4.20;2.17;;;10.50;99.90;;;;;;4996747;28;20548;-50
2021/10/17 07:42:00;;;;;;;6.53;2.30;;;10.50;99.90;;;;;;4997162;28;20504;-49
2021/10/17 07:44:27;;;;;;;3.77;2.30;;;10.50;99.90;;;;;;4996944;28;20488;-52
2021/10/17 07:46:54;;;;;;;2.43;1.77;;;10.50;99.90;;;;;;4998233;28;20507;-47
2021/10/17 07:49:20;;;;;;;3.23;2.10;;;10.50;99.90;;;;;;4996946;28;20486;-52
2021/10/17 07:51:47;;;;;;;3.03;2.30;;;10.50;99.90;;;;;;4996587;28;21012;-49
2021/10/17 07:54:14;;;;;;;3.00;1.80;;;10.60;99.90;;;;;;4996792;28;20493;-53
2021/10/17 07:56:42;;;;;;;4.20;2.43;;;10.50;99.90;;;;;;4996824;28;20505;-48
2021/10/17 07:59:08;;;;;;;4.30;2.50;;;10.50;99.90;;;;;;4997536;28;20939;-49
2021/10/17 08:01:35;;;;;;;6.87;2.00;;;10.50;99.90;;;;;;4997091;28;20442;-49
2021/10/17 08:04:01;;;;;;;6.77;2.50;;;10.60;99.90;;;;;;4996803;28;20457;-52
2021/10/17 08:06:28;;;;;;;4.90;2.17;;;10.70;99.90;;;;;;4996685;28;20442;-46
2021/10/17 08:08:55;;;;;;;7.03;2.43;;;10.80;99.90;;;;;;4996585;28;20462;-45
2021/10/17 08:11:21;;;;;;;6.30;2.03;;;10.80;99.90;;;;;;4997608;28;20482;-47
2021/10/17 08:13:49;;;;;;;7.10;2.90;;;10.90;99.90;;;;;;4996221;28;20512;-49
2021/10/17 08:16:16;;;;;;;5.00;1.80;;;10.90;99.90;;;;;;4996374;28;20520;-52
2021/10/17 08:18:43;;;;;;;2.97;1.80;;;11.00;99.90;;;;;;4996091;28;20837;-50
2021/10/17 08:21:10;;;;;;;2.80;2.00;;;11.00;99.90;;;;;;4996420;28;20477;-49
2021/10/17 08:23:36;;;;;;;4.80;2.57;;;11.10;99.90;;;;;;4997618;28;20497;-50
2021/10/17 08:26:03;;;;;;;6.53;2.17;;;11.20;99.90;;;;;;4996342;28;20450;-49
2021/10/17 08:28:30;;;;;;;5.57;2.10;;;11.30;99.90;;;;;;4995916;28;20446;-50
2021/10/17 08:31:00;;;;;;;2.90;2.20;;;11.40;99.90;;;;;;4996331;28;20481;-49
2021/10/17 08:33:27;;;;;;;7.13;2.40;;;11.50;99.90;;;;;;4996958;28;20469;-49
2021/10/17 08:35:54;;;;;;;4.43;2.23;;;11.60;99.90;;;;;;4996886;28;20457;-50
2021/10/17 08:38:20;;;;;;;7.73;3.07;;;11.70;99.90;;;;;;4996153;28;20504;-54
2021/10/17 08:40:49;;;;;;;6.50;2.47;;;11.80;99.90;;;;;;4997521;28;20865;-46
2021/10/17 08:43:16;;;;;;;9.10;2.63;;;11.80;99.90;;;;;;4996061;28;20453;-49
2021/10/17 08:45:44;;;;;;;3.13;2.30;;;11.80;99.90;;;;;;4995744;28;20473;-49
2021/10/17 08:48:13;;;;;;;7.90;2.57;;;11.90;99.90;;;;;;4995889;28;20512;-49
2021/10/17 08:50:41;;;;;;;5.90;2.67;;;12.00;99.90;;;;;;4996530;28;20556;-49
2021/10/17 08:53:07;;;;;;;5.43;2.10;;;12.20;99.90;;;;;;4995749;28;20838;-50
2021/10/17 08:55:34;;;;;;;8.23;3.70;;;12.40;99.90;;;;;;4996820;28;20854;-50
2021/10/17 08:58:01;;;;;;;4.83;2.40;;;12.40;99.90;;;;;;4995690;28;20496;-51
2021/10/17 09:00:30;;;;;;;4.03;2.37;;;12.50;99.90;;;;;;4995541;28;20474;-49
2021/10/17 09:02:57;;;;;;;7.60;2.77;;;12.60;99.90;;;;;;4995731;28;20458;-48
2021/10/17 09:05:36;;;;;;;5.67;2.10;;;12.60;99.90;;;;;;4995383;28;21025;-48
2021/10/17 09:08:03;;;;;;;7.80;3.03;;;12.60;99.90;;;;;;4996782;28;20460;-53
2021/10/17 09:10:30;;;;;;;4.50;2.17;;;12.70;99.90;;;;;;4994758;28;20508;-49
2021/10/17 09:13:10;;;;;;;3.03;2.10;;;12.80;99.90;;;;;;4995213;28;20483;-54
2021/10/17 09:15:37;;;;;;;3.20;2.70;;;12.90;99.90;;;;;;4995228;28;20539;-52
2021/10/17 09:18:06;;;;;;;7.10;2.30;;;13.00;99.90;;;;;;4995187;28;20454;-50
2021/10/17 09:20:37;;;;;;;3.60;2.70;;;13.20;99.90;;;;;;4995467;28;20500;-57
2021/10/17 09:23:06;;;;;;;5.27;2.23;;;13.30;99.90;;;;;;4996662;28;20453;-48
2021/10/17 09:25:34;;;;;;;8.53;3.00;;;13.60;99.90;;;;;;4995351;28;20540;-48
2021/10/17 09:28:00;;;;;;;4.67;2.40;;;13.90;99.90;;;;;;4995329;28;20508;-53
2021/10/17 09:30:28;;;;;;;5.63;2.83;;;14.30;99.90;;;;;;4995040;28;20466;-47
2021/10/17 09:33:14;;;;;;;7.13;2.27;;;14.70;99.90;;;;;;4995641;28;20470;-56
2021/10/17 09:35:42;;;;;;;3.53;2.50;;;15.10;99.90;;;;;;4995521;28;20473;-47
2021/10/17 09:38:09;;;;;;;4.40;2.03;;;15.10;99.90;;;;;;4995952;28;20437;-52
2021/10/17 09:40:38;;;;;;;7.60;3.07;;;15.00;99.90;;;;;;4995057;28;20476;-52
2021/10/17 09:43:09;;;;;;;29.90;11.37;;;14.90;99.90;;;;;;4995214;28;20556;-48
2021/10/17 09:45:36;;;;;;;14.50;6.57;;;14.80;99.90;;;;;;4995546;28;20477;-53
2021/10/17 09:48:03;;;;;;;2.90;2.23;;;14.70;99.90;;;;;;4995136;28;20850;-48
2021/10/17 09:50:30;;;;;;;4.50;2.50;;;14.80;99.90;;;;;;4994657;28;20966;-51
2021/10/17 09:53:08;;;;;;;2.80;2.10;;;15.40;99.90;;;;;;4995079;28;20508;-52
2021/10/17 09:55:35;;;;;;;5.83;2.67;;;15.70;99.90;;;;;;4995051;28;20477;-48
2021/10/17 09:58:05;;;;;;;4.40;2.50;;;15.70;99.90;;;;;;4995017;28;20761;-51
2021/10/17 10:00:33;;;;;;;5.57;2.07;;;16.00;99.90;;;;;;4995613;28;20474;-54
2021/10/17 10:03:01;;;;;;;5.00;2.77;;;16.40;99.90;;;;;;4995205;28;20454;-56
2021/10/17 10:05:28;;;;;;;3.80;3.00;;;16.80;99.90;;;;;;4994494;28;20993;-48
2021/10/17 10:08:00;;;;;;;7.50;2.63;;;17.40;99.90;;;;;;4994859;28;20552;-50
2021/10/17 10:10:28;;;;;;;5.47;2.07;;;17.80;99.90;;;;;;4994536;28;20540;-57
2021/10/17 10:12:58;;;;;;;8.10;2.47;;;17.80;99.90;;;;;;4995660;28;20449;-55
2021/10/17 10:15:25;;;;;;;4.10;2.27;;;17.70;99.40;;;;;;4995102;28;20908;-50
2021/10/17 10:17:55;;;;;;;5.30;2.17;;;17.60;99.70;;;;;;4994854;28;20472;-49
2021/10/17 10:20:22;;;;;;;4.33;2.10;;;17.20;99.00;;;;;;4994567;28;21034;-49
2021/10/17 10:22:50;;;;;;;5.30;2.17;;;16.80;99.70;;;;;;4996975;28;20443;-50
2021/10/17 10:25:18;;;;;;;3.03;2.30;;;16.30;99.90;;;;;;4999561;28;20441;-54
2021/10/17 10:27:47;;;;;;;8.10;4.03;;;15.90;99.90;;;;;;4998766;28;20442;-52
2021/10/17 10:30:26;;;;;;;5.37;2.33;;;15.60;99.90;;;;;;4998056;28;21000;-49
2021/10/17 10:33:13;;;;;;;2.00;1.80;;;15.50;99.90;;;;;;4998307;28;20485;-54
2021/10/17 10:36:09;;;;;;;5.03;1.80;;;15.40;99.90;;;;;;4998260;28;20474;-47
2021/10/17 10:39:12;;;;;;;4.63;1.90;;;15.30;99.90;;;;;;4999053;28;20434;-50
2021/10/17 10:41:48;;;;;;;4.33;2.30;;;15.30;99.90;;;;;;4998210;28;20457;-47
2021/10/17 10:44:18;;;;;;;3.90;2.20;;;15.00;99.90;;;;;;4998179;28;20443;-50
2021/10/17 10:46:48;;;;;;;3.20;2.10;;;14.70;99.90;;;;;;4998185;28;20473;-52
2021/10/17 10:49:40;;;;;;;3.07;1.80;;;14.60;99.90;;;;;;4999171;28;20462;-56
2021/10/17 10:52:09;;;;;;;5.13;2.47;;;14.70;99.90;;;;;;4997983;28;20504;-50
2021/10/17 10:54:37;;;;;;;3.07;1.63;;;14.70;99.90;;;;;;5031553;22;20485;-43
2021/10/17 10:57:24;;;;;;;4.40;2.13;;;14.70;99.90;;;;;;5056437;28;20491;-52
2021/10/17 11:00:00;;;;;;;4.47;2.13;;;14.60;99.90;;;;;;5063534;22;20496;-52
2021/10/17 11:02:28;;;;;;;5.60;2.40;;;14.30;99.90;;;;;;5014321;28;20448;-44
2021/10/17 11:04:59;;;;;;;5.47;2.30;;;14.10;99.90;;;;;;5023910;23;20474;-48
2021/10/17 11:07:31;;;;;;;5.63;3.37;;;14.00;99.90;;;;;;4999040;28;21038;-51
2021/10/17 11:12:46;;;;;;;5.07;1.97;;;13.60;99.90;;;;;;5969337;23;20388;-46
2021/10/17 11:15:15;;;;;;;4.87;2.17;;;13.60;99.90;;;;;;5049760;23;20437;-51
2021/10/17 11:17:48;;;;;;;3.33;2.17;;;13.60;99.90;;;;;;5056847;28;20493;-47
2021/10/17 11:20:18;;;;;;;2.00;1.80;;;13.70;99.90;;;;;;5063671;23;20505;-56
2021/10/17 11:22:44;;;;;;;6.43;2.10;;;13.70;99.90;;;;;;5059625;28;20479;-51
2021/10/17 11:25:14;;;;;;;2.63;1.87;;;13.70;99.90;;;;;;5056886;28;20439;-52
2021/10/17 11:27:41;;;;;;;4.60;2.07;;;13.70;99.90;;;;;;5080100;23;20520;-47
2021/10/17 11:30:19;;;;;;;4.53;2.27;;;13.80;99.90;;;;;;5076781;28;20507;-48
2021/10/17 11:32:46;;;;;;;3.57;2.13;;;13.80;99.90;;;;;;5041289;22;20488;-54
2021/10/17 11:35:12;;;;;;;3.00;2.23;;;13.80;99.90;;;;;;5030696;28;20451;-52
2021/10/17 11:37:39;;;;;;;9.23;2.00;;;13.80;99.90;;;;;;5043560;22;20484;-51
2021/10/17 11:40:10;;;;;;;7.30;2.30;;;14.00;99.90;;;;;;5039253;28;20449;-53
2021/10/17 11:42:45;;;;;;;4.30;2.10;;;14.10;99.90;;;;;;5054571;22;20488;-52
2021/10/17 11:45:22;;;;;;;5.00;2.00;;;14.30;99.90;;;;;;5037982;28;20519;-48
2021/10/17 11:47:50;;;;;;;3.50;2.27;;;14.20;99.90;;;;;;5043856;22;20552;-50
2021/10/17 11:50:22;;;;;;;5.90;2.13;;;14.30;99.90;;;;;;5024372;28;20444;-51
2021/10/17 11:52:54;;;;;;;3.37;2.07;;;14.40;99.90;;;;;;5023361;23;20967;-50
2021/10/17 11:55:36;;;;;;;3.07;1.90;;;14.40;99.90;;;;;;5016226;28;20499;-47
2021/10/17 11:58:04;;;;;;;2.50;1.97;;;14.40;99.90;;;;;;5027810;23;20887;-51
2021/10/17 12:00:34;;;;;;;6.30;2.30;;;14.30;99.90;;;;;;5036331;28;20452;-53
2021/10/17 12:03:01;;;;;;;2.43;1.73;;;14.30;99.90;;;;;;5044151;22;20496;-50
2021/10/17 12:05:29;;;;;;;8.50;1.80;;;14.20;99.90;;;;;;5038509;28;20435;-56
2021/10/17 12:07:59;;;;;;;4.20;2.03;;;14.10;99.90;;;;;;5047273;22;20778;-51
2021/10/17 12:10:28;;;;;;;3.80;2.30;;;14.10;99.90;;;;;;5035793;28;20467;-49
2021/10/17 12:15:40;;;;;;;4.23;2.63;;;14.10;99.90;;;;;;5044098;22;20516;-51
2021/10/17 12:18:09;;;;;;;3.60;2.27;;;14.20;99.90;;;;;;5035732;28;20479;-50
2021/10/17 12:20:35;;;;;;;4.03;2.10;;;14.20;99.90;;;;;;5043551;22;20511;-47
2021/10/17 12:23:03;;;;;;;5.70;2.33;;;14.20;99.90;;;;;;5036157;28;20948;-51
2021/10/17 12:25:33;;;;;;;6.80;2.63;;;14.40;99.90;;;;;;5043564;22;20549;-51
2021/10/17 12:28:01;;;;;;;4.73;2.13;;;14.50;99.90;;;;;;5035811;28;20542;-50
2021/10/17 12:30:34;;;;;;;2.10;1.87;;;14.60;99.90;;;;;;5043107;22;20574;-47
2021/10/17 12:33:03;;;;;;;4.03;2.80;;;14.60;99.90;;;;;;5035556;28;20488;-49
2021/10/17 12:35:32;;;;;;;4.60;1.97;;;14.70;99.90;;;;;;5043286;22;20496;-50
2021/10/17 12:38:06;;;;;;;8.83;2.47;;;14.60;99.90;;;;;;5035326;28;20472;-50
2021/10/17 12:40:35;;;;;;;5.47;3.53;;;14.60;99.90;;;;;;5043854;22;20496;-55
2021/10/17 12:43:03;;;;;;;7.10;2.47;;;14.60;99.90;;;;;;5036903;28;20844;-49
2021/10/17 12:45:32;;;;;;;5.43;2.60;;;14.60;99.90;;;;;;5045435;22;20500;-50
2021/10/17 12:48:00;;;;;;;5.23;2.43;;;14.50;99.90;;;;;;5035386;28;20534;-46
2021/10/17 12:50:35;;;;;;;5.67;2.07;;;14.40;99.90;;;;;;5043008;22;20488;-47
2021/10/17 12:53:06;;;;;;;3.33;2.30;;;14.30;99.90;;;;;;5035172;28;20557;-47
2021/10/17 12:55:36;;;;;;;4.53;2.67;;;14.30;99.90;;;;;;5042961;22;20527;-51
2021/10/17 12:58:06;;;;;;;8.83;2.40;;;14.40;99.90;;;;;;5037429;28;20476;-53
2021/10/17 13:00:33;;;;;;;12.97;4.40;;;14.40;99.90;;;;;;5045495;22;20484;-51
2021/10/17 13:03:17;;;;;;;4.00;2.30;;;14.30;99.90;;;;;;5035223;28;20464;-46
2021/10/17 13:05:50;;;;;;;4.67;2.43;;;14.40;99.90;;;;;;5043177;22;20522;-49